Saturday, November 17, 2018, 10:35 AM EST
Back to Local

K40B, Clayton Lake

Location: Ashland, ME, United States Lat: 46.617
Local Time: 10:35 AM EST (15:35 GMT) Lon: -69.533
Time Zone: US/Eastern Elev: 1030 ft

Show me the last for .
Show Decoded

2018-11-17 10:16 METAR K40B 171516Z AUTO VRB04G12KT M03/M03 A2980 RMK AO1 SLP121 T10261030 51022
                 =
2018-11-17 09:16 METAR K40B 171416Z AUTO VRB05KT M03/M03 A2978 RMK AO1 SLP115 T10291033 52020 =
2018-11-17 08:16 METAR K40B 171316Z AUTO VRB06KT M05/M05 A2976 RMK AO1 SLP108 T10531055 51024 =
2018-11-17 07:16 METAR K40B 171216Z AUTO VRB04KT M07/M07 A2973 RMK AO1 SLP099 T10671069 11067
                 21112 51023 60001 70061 =
2018-11-17 06:16 METAR K40B 171116Z AUTO 00000KT M09/M10 A2972 RMK AO1 SLP094 T10931096 53023
                 P0000 =
2018-11-17 05:16 METAR K40B 171016Z AUTO 00000KT M11/M12 A2968 RMK AO1 SLP082 T11111117 52017 =
2018-11-17 04:16 METAR K40B 170916Z AUTO VRB02KT M09/M09 A2966 RMK AO1 SLP075 T10891095 52019
                 P0000 60000 =
2018-11-17 03:16 METAR K40B 170816Z AUTO VRB02KT M07/M08 A2964 RMK AO1 SLP069 T10731076 52018 =
2018-11-17 02:16 METAR K40B 170716Z AUTO 00000KT M08/M08 A2963 RMK AO1 SLP063 T10771080 52020 =
2018-11-17 01:16 METAR K40B 170616Z AUTO 00000KT M08/M08 A2961 RMK AO1 SLP055 T10771080 11072
                 21077 52016 P0001 60011 =
2018-11-17 00:16 METAR K40B 170516Z AUTO 00000KT M07/M08 A2959 RMK AO1 SLP049 T10751077 410681100
                 53011 P0001 =
2018-11-16 23:17 METAR K40B 170417Z AUTO 00000KT M07/M08 A2957 RMK AO1 SLP042 T10741076 53003
                 P0002 =
2018-11-16 22:16 METAR K40B 170316Z AUTO 00000KT M07/M08 A2955 RMK AO1 SLP038 T10741076 57003
                 P0003 60007 =
2018-11-16 21:16 METAR K40B 170216Z AUTO 00000KT M07/M08 A2955 RMK AO1 SLP038 T10731075 57002
                 P0003 =
2018-11-16 20:16 METAR K40B 170116Z AUTO 00000KT M07/M08 A2956 RMK AO1 SLP039 T10731075 56009
                 P0001 =
2018-11-16 19:16 METAR K40B 170016Z AUTO 00000KT M07/M07 A2957 RMK AO1 SLP042 T10721074 11068
                 21073 55007 60015 =
2018-11-16 18:16 METAR K40B 162316Z AUTO 00000KT M07/M07 A2956 RMK AO1 SLP041 T10711073 58011
                 P0001 =
2018-11-16 17:16 METAR K40B 162216Z AUTO VRB02KT M07/M07 A2959 RMK AO1 SLP049 T10711073 56011
                 P0001 =
2018-11-16 16:16 METAR K40B 162116Z AUTO VRB02KT M07/M07 A2959 RMK AO1 SLP050 T10711074 56020
                 P0001 60012 =
2018-11-16 15:16 METAR K40B 162016Z AUTO VRB02KT M07/M07 A2959 RMK AO1 SLP053 T10701072 56034
                 P0004 =
2018-11-16 14:16 METAR K40B 161916Z AUTO VRB04KT M07/M07 A2962 RMK AO1 SLP061 T10691072 56044
                 P0007 =
2018-11-16 13:16 METAR K40B 161816Z AUTO VRB04KT M07/M07 A2965 RMK AO1 SLP072 T10721075 11073
                 21085 57052 P0010 60034 =
2018-11-16 12:16 METAR K40B 161716Z AUTO VRB03KT M08/M08 A2970 RMK AO1 SLP089 T10761079 57053
                 P0016 =
2018-11-16 11:16 METAR K40B 161616Z AUTO VRB05KT M08/M08 A2975 RMK AO1 SLP108 T10801085 57051
                 P0006 =

Support USWX by starting your Amazon purchase here.